sensor_id;sensor_type;location;lat;lon;timestamp;P1;durP1;ratioP1;P2;durP2;ratioP2
64186;SDS011;50491;39.484;-8.540;2022-12-24T00:01:33;9.07;;;4.55;;
64186;SDS011;50491;39.484;-8.540;2022-12-24T00:03:35;12.18;;;4.88;;
64186;SDS011;50491;39.484;-8.540;2022-12-24T00:05:36;9.48;;;4.30;;
64186;SDS011;50491;39.484;-8.540;2022-12-24T00:07:37;10.18;;;5.65;;
64186;SDS011;50491;39.484;-8.540;2022-12-24T00:09:38;8.23;;;4.63;;
64186;SDS011;50491;39.484;-8.540;2022-12-24T00:11:57;8.55;;;4.82;;
64186;SDS011;50491;39.484;-8.540;2022-12-24T00:13:57;8.48;;;5.03;;
64186;SDS011;50491;39.484;-8.540;2022-12-24T00:15:58;13.82;;;6.28;;
64186;SDS011;50491;39.484;-8.540;2022-12-24T00:17:59;9.88;;;5.60;;
64186;SDS011;50491;39.484;-8.540;2022-12-24T00:20:00;10.77;;;5.43;;
64186;SDS011;50491;39.484;-8.540;2022-12-24T00:22:00;10.90;;;5.20;;
64186;SDS011;50491;39.484;-8.540;2022-12-24T00:24:01;9.15;;;5.10;;
64186;SDS011;50491;39.484;-8.540;2022-12-24T00:26:04;8.80;;;4.57;;
64186;SDS011;50491;39.484;-8.540;2022-12-24T00:28:05;10.45;;;6.03;;
64186;SDS011;50491;39.484;-8.540;2022-12-24T00:35:40;7.63;;;5.68;;
64186;SDS011;50491;39.484;-8.540;2022-12-24T00:37:59;9.77;;;5.72;;
64186;SDS011;50491;39.484;-8.540;2022-12-24T00:40:18;16.23;;;4.65;;
64186;SDS011;50491;39.484;-8.540;2022-12-24T00:42:19;6.10;;;4.35;;
64186;SDS011;50491;39.484;-8.540;2022-12-24T00:44:20;9.48;;;4.93;;
64186;SDS011;50491;39.484;-8.540;2022-12-24T00:46:39;9.13;;;4.60;;
64186;SDS011;50491;39.484;-8.540;2022-12-24T00:48:40;11.18;;;4.70;;
64186;SDS011;50491;39.484;-8.540;2022-12-24T00:50:41;12.00;;;6.20;;
64186;SDS011;50491;39.484;-8.540;2022-12-24T00:52:41;11.65;;;5.75;;
64186;SDS011;50491;39.484;-8.540;2022-12-24T00:55:01;11.38;;;5.15;;
64186;SDS011;50491;39.484;-8.540;2022-12-24T00:57:02;11.07;;;5.25;;
64186;SDS011;50491;39.484;-8.540;2022-12-24T00:59:03;7.38;;;5.35;;
64186;SDS011;50491;39.484;-8.540;2022-12-24T01:01:22;8.57;;;4.57;;
64186;SDS011;50491;39.484;-8.540;2022-12-24T01:03:23;6.20;;;4.05;;
64186;SDS011;50491;39.484;-8.540;2022-12-24T01:05:36;9.38;;;5.13;;
64186;SDS011;50491;39.484;-8.540;2022-12-24T01:07:37;8.75;;;4.68;;
64186;SDS011;50491;39.484;-8.540;2022-12-24T01:10:22;10.77;;;5.30;;
64186;SDS011;50491;39.484;-8.540;2022-12-24T01:12:23;8.65;;;5.07;;
64186;SDS011;50491;39.484;-8.540;2022-12-24T01:17:57;13.98;;;4.78;;
64186;SDS011;50491;39.484;-8.540;2022-12-24T01:20:16;15.13;;;5.30;;
64186;SDS011;50491;39.484;-8.540;2022-12-24T01:22:35;11.15;;;3.83;;
64186;SDS011;50491;39.484;-8.540;2022-12-24T01:24:36;9.40;;;4.43;;
64186;SDS011;50491;39.484;-8.540;2022-12-24T01:26:37;10.20;;;4.78;;
64186;SDS011;50491;39.484;-8.540;2022-12-24T01:28:56;11.02;;;4.45;;
64186;SDS011;50491;39.484;-8.540;2022-12-24T01:30:57;15.70;;;6.40;;
64186;SDS011;50491;39.484;-8.540;2022-12-24T01:33:16;12.18;;;5.18;;
64186;SDS011;50491;39.484;-8.540;2022-12-24T01:35:41;9.80;;;5.32;;
64186;SDS011;50491;39.484;-8.540;2022-12-24T01:38:01;11.85;;;6.15;;
64186;SDS011;50491;39.484;-8.540;2022-12-24T01:40:02;9.13;;;5.43;;
64186;SDS011;50491;39.484;-8.540;2022-12-24T01:42:22;6.85;;;4.55;;
64186;SDS011;50491;39.484;-8.540;2022-12-24T01:45:21;9.73;;;5.47;;
64186;SDS011;50491;39.484;-8.540;2022-12-24T01:48:00;8.23;;;5.80;;
64186;SDS011;50491;39.484;-8.540;2022-12-24T01:50:02;8.52;;;4.82;;
64186;SDS011;50491;39.484;-8.540;2022-12-24T01:52:27;9.15;;;4.65;;
64186;SDS011;50491;39.484;-8.540;2022-12-24T01:54:53;9.23;;;5.95;;
64186;SDS011;50491;39.484;-8.540;2022-12-24T01:57:01;9.40;;;5.28;;
64186;SDS011;50491;39.484;-8.540;2022-12-24T01:59:06;8.32;;;5.40;;
64186;SDS011;50491;39.484;-8.540;2022-12-24T02:01:08;10.02;;;4.93;;
64186;SDS011;50491;39.484;-8.540;2022-12-24T02:03:08;9.68;;;5.72;;
64186;SDS011;50491;39.484;-8.540;2022-12-24T02:05:22;9.35;;;5.82;;
64186;SDS011;50491;39.484;-8.540;2022-12-24T02:07:44;14.25;;;5.45;;
64186;SDS011;50491;39.484;-8.540;2022-12-24T02:09:45;7.80;;;4.32;;
64186;SDS011;50491;39.484;-8.540;2022-12-24T02:11:49;10.90;;;4.55;;
64186;SDS011;50491;39.484;-8.540;2022-12-24T02:13:51;8.68;;;4.40;;
64186;SDS011;50491;39.484;-8.540;2022-12-24T02:18:20;7.93;;;4.90;;
64186;SDS011;50491;39.484;-8.540;2022-12-24T02:23:05;12.55;;;4.50;;
64186;SDS011;50491;39.484;-8.540;2022-12-24T02:32:52;11.30;;;4.63;;
64186;SDS011;50491;39.484;-8.540;2022-12-24T02:37:11;12.07;;;5.57;;
64186;SDS011;50491;39.484;-8.540;2022-12-24T02:39:27;9.65;;;4.55;;
64186;SDS011;50491;39.484;-8.540;2022-12-24T02:42:02;6.63;;;4.07;;
64186;SDS011;50491;39.484;-8.540;2022-12-24T02:44:05;8.85;;;4.22;;
64186;SDS011;50491;39.484;-8.540;2022-12-24T02:46:10;11.82;;;4.05;;
64186;SDS011;50491;39.484;-8.540;2022-12-24T02:48:30;9.18;;;3.90;;
64186;SDS011;50491;39.484;-8.540;2022-12-24T02:51:08;5.13;;;4.30;;
64186;SDS011;50491;39.484;-8.540;2022-12-24T02:53:28;9.15;;;4.13;;
64186;SDS011;50491;39.484;-8.540;2022-12-24T02:55:34;7.10;;;4.32;;
64186;SDS011;50491;39.484;-8.540;2022-12-24T03:00:06;9.35;;;4.28;;
64186;SDS011;50491;39.484;-8.540;2022-12-24T03:06:56;8.10;;;4.07;;
64186;SDS011;50491;39.484;-8.540;2022-12-24T03:09:45;7.55;;;4.10;;
64186;SDS011;50491;39.484;-8.540;2022-12-24T03:12:02;7.38;;;4.32;;
64186;SDS011;50491;39.484;-8.540;2022-12-24T03:14:05;16.00;;;4.93;;
64186;SDS011;50491;39.484;-8.540;2022-12-24T03:16:06;8.73;;;4.63;;
64186;SDS011;50491;39.484;-8.540;2022-12-24T03:18:27;6.63;;;3.97;;
64186;SDS011;50491;39.484;-8.540;2022-12-24T03:20:34;6.85;;;4.47;;
64186;SDS011;50491;39.484;-8.540;2022-12-24T03:23:01;6.32;;;3.88;;
64186;SDS011;50491;39.484;-8.540;2022-12-24T03:25:03;9.13;;;4.10;;
64186;SDS011;50491;39.484;-8.540;2022-12-24T03:27:04;10.75;;;4.70;;
64186;SDS011;50491;39.484;-8.540;2022-12-24T03:29:06;6.22;;;4.05;;
64186;SDS011;50491;39.484;-8.540;2022-12-24T03:31:07;10.57;;;4.68;;
64186;SDS011;50491;39.484;-8.540;2022-12-24T03:33:27;6.72;;;3.65;;
64186;SDS011;50491;39.484;-8.540;2022-12-24T03:35:28;10.15;;;4.43;;
64186;SDS011;50491;39.484;-8.540;2022-12-24T03:37:47;6.45;;;4.50;;
64186;SDS011;50491;39.484;-8.540;2022-12-24T03:39:47;5.82;;;4.30;;
64186;SDS011;50491;39.484;-8.540;2022-12-24T03:41:48;6.13;;;3.67;;
64186;SDS011;50491;39.484;-8.540;2022-12-24T03:43:48;8.38;;;4.25;;
64186;SDS011;50491;39.484;-8.540;2022-12-24T03:45:49;7.00;;;4.25;;
64186;SDS011;50491;39.484;-8.540;2022-12-24T03:47:50;6.22;;;3.60;;
64186;SDS011;50491;39.484;-8.540;2022-12-24T03:49:50;5.90;;;3.88;;
64186;SDS011;50491;39.484;-8.540;2022-12-24T03:51:51;10.25;;;4.22;;
64186;SDS011;50491;39.484;-8.540;2022-12-24T03:54:10;6.22;;;3.88;;
64186;SDS011;50491;39.484;-8.540;2022-12-24T03:56:30;10.70;;;4.70;;
64186;SDS011;50491;39.484;-8.540;2022-12-24T03:58:30;7.38;;;3.78;;
64186;SDS011;50491;39.484;-8.540;2022-12-24T04:00:31;7.00;;;3.80;;
64186;SDS011;50491;39.484;-8.540;2022-12-24T04:02:32;8.68;;;3.63;;
64186;SDS011;50491;39.484;-8.540;2022-12-24T04:04:32;9.20;;;3.38;;
64186;SDS011;50491;39.484;-8.540;2022-12-24T04:06:35;6.68;;;3.78;;
64186;SDS011;50491;39.484;-8.540;2022-12-24T04:08:36;5.85;;;3.45;;
64186;SDS011;50491;39.484;-8.540;2022-12-24T04:10:37;8.35;;;3.80;;
64186;SDS011;50491;39.484;-8.540;2022-12-24T04:12:56;10.95;;;3.85;;
64186;SDS011;50491;39.484;-8.540;2022-12-24T04:15:16;7.75;;;3.70;;
64186;SDS011;50491;39.484;-8.540;2022-12-24T04:17:16;8.35;;;3.90;;
64186;SDS011;50491;39.484;-8.540;2022-12-24T04:19:17;3.90;;;3.00;;
64186;SDS011;50491;39.484;-8.540;2022-12-24T04:21:18;3.53;;;3.00;;
64186;SDS011;50491;39.484;-8.540;2022-12-24T04:23:18;7.50;;;3.78;;
64186;SDS011;50491;39.484;-8.540;2022-12-24T04:25:38;6.63;;;3.05;;
64186;SDS011;50491;39.484;-8.540;2022-12-24T04:27:38;9.35;;;3.55;;
64186;SDS011;50491;39.484;-8.540;2022-12-24T04:29:39;7.40;;;3.20;;
64186;SDS011;50491;39.484;-8.540;2022-12-24T04:31:40;6.38;;;3.60;;
64186;SDS011;50491;39.484;-8.540;2022-12-24T04:33:50;8.85;;;3.10;;
64186;SDS011;50491;39.484;-8.540;2022-12-24T04:35:51;5.25;;;3.42;;
64186;SDS011;50491;39.484;-8.540;2022-12-24T04:37:52;8.70;;;4.47;;
64186;SDS011;50491;39.484;-8.540;2022-12-24T04:39:53;7.53;;;4.20;;
64186;SDS011;50491;39.484;-8.540;2022-12-24T04:41:53;5.38;;;3.50;;
64186;SDS011;50491;39.484;-8.540;2022-12-24T04:43:54;7.00;;;3.92;;
64186;SDS011;50491;39.484;-8.540;2022-12-24T04:45:55;5.22;;;3.28;;
64186;SDS011;50491;39.484;-8.540;2022-12-24T04:47:56;6.82;;;3.60;;
64186;SDS011;50491;39.484;-8.540;2022-12-24T04:49:57;8.15;;;3.72;;
64186;SDS011;50491;39.484;-8.540;2022-12-24T04:51:58;6.90;;;3.33;;
64186;SDS011;50491;39.484;-8.540;2022-12-24T04:53:59;7.40;;;3.92;;
64186;SDS011;50491;39.484;-8.540;2022-12-24T04:55:59;6.43;;;3.55;;
64186;SDS011;50491;39.484;-8.540;2022-12-24T04:58:00;11.70;;;5.45;;
64186;SDS011;50491;39.484;-8.540;2022-12-24T05:00:01;5.22;;;3.42;;
64186;SDS011;50491;39.484;-8.540;2022-12-24T05:02:03;9.32;;;3.88;;
64186;SDS011;50491;39.484;-8.540;2022-12-24T05:04:03;13.25;;;4.63;;
64186;SDS011;50491;39.484;-8.540;2022-12-24T05:06:23;8.82;;;3.75;;
64186;SDS011;50491;39.484;-8.540;2022-12-24T05:09:01;4.47;;;3.38;;
64186;SDS011;50491;39.484;-8.540;2022-12-24T05:11:03;7.50;;;3.70;;
64186;SDS011;50491;39.484;-8.540;2022-12-24T05:13:22;4.72;;;3.63;;
64186;SDS011;50491;39.484;-8.540;2022-12-24T05:15:43;8.32;;;3.85;;
64186;SDS011;50491;39.484;-8.540;2022-12-24T05:17:44;7.55;;;3.67;;
64186;SDS011;50491;39.484;-8.540;2022-12-24T05:19:44;9.57;;;4.65;;
64186;SDS011;50491;39.484;-8.540;2022-12-24T05:22:03;10.90;;;3.80;;
64186;SDS011;50491;39.484;-8.540;2022-12-24T05:24:22;7.88;;;4.30;;
64186;SDS011;50491;39.484;-8.540;2022-12-24T05:39:51;8.55;;;3.92;;
64186;SDS011;50491;39.484;-8.540;2022-12-24T05:42:10;11.43;;;4.50;;
64186;SDS011;50491;39.484;-8.540;2022-12-24T05:47:07;6.18;;;3.63;;
64186;SDS011;50491;39.484;-8.540;2022-12-24T05:49:08;7.80;;;3.67;;
64186;SDS011;50491;39.484;-8.540;2022-12-24T05:51:27;8.77;;;4.32;;
64186;SDS011;50491;39.484;-8.540;2022-12-24T05:53:47;5.25;;;4.00;;
64186;SDS011;50491;39.484;-8.540;2022-12-24T05:55:48;7.97;;;4.13;;
64186;SDS011;50491;39.484;-8.540;2022-12-24T05:57:49;6.20;;;4.45;;
64186;SDS011;50491;39.484;-8.540;2022-12-24T06:00:08;8.02;;;4.55;;
64186;SDS011;50491;39.484;-8.540;2022-12-24T06:02:12;7.47;;;4.68;;
64186;SDS011;50491;39.484;-8.540;2022-12-24T06:04:13;7.13;;;4.60;;
64186;SDS011;50491;39.484;-8.540;2022-12-24T06:06:32;7.53;;;4.38;;
64186;SDS011;50491;39.484;-8.540;2022-12-24T06:08:51;12.45;;;4.30;;
64186;SDS011;50491;39.484;-8.540;2022-12-24T06:11:13;6.38;;;4.43;;
64186;SDS011;50491;39.484;-8.540;2022-12-24T06:13:14;6.57;;;4.10;;
64186;SDS011;50491;39.484;-8.540;2022-12-24T06:15:15;13.00;;;5.18;;
64186;SDS011;50491;39.484;-8.540;2022-12-24T06:17:16;10.93;;;4.75;;
64186;SDS011;50491;39.484;-8.540;2022-12-24T06:19:17;9.18;;;3.88;;
64186;SDS011;50491;39.484;-8.540;2022-12-24T06:21:17;9.48;;;4.63;;
64186;SDS011;50491;39.484;-8.540;2022-12-24T06:23:44;10.18;;;4.60;;
64186;SDS011;50491;39.484;-8.540;2022-12-24T06:25:45;10.38;;;5.03;;
64186;SDS011;50491;39.484;-8.540;2022-12-24T06:28:05;12.40;;;4.63;;
64186;SDS011;50491;39.484;-8.540;2022-12-24T06:30:05;6.70;;;4.53;;
64186;SDS011;50491;39.484;-8.540;2022-12-24T06:32:06;10.07;;;4.30;;
64186;SDS011;50491;39.484;-8.540;2022-12-24T06:34:07;9.80;;;4.80;;
64186;SDS011;50491;39.484;-8.540;2022-12-24T06:36:09;13.85;;;4.40;;
64186;SDS011;50491;39.484;-8.540;2022-12-24T06:38:38;8.30;;;4.57;;
64186;SDS011;50491;39.484;-8.540;2022-12-24T06:40:39;6.03;;;4.05;;
64186;SDS011;50491;39.484;-8.540;2022-12-24T06:42:41;7.70;;;4.10;;
64186;SDS011;50491;39.484;-8.540;2022-12-24T06:44:41;10.38;;;4.68;;
64186;SDS011;50491;39.484;-8.540;2022-12-24T06:46:42;15.48;;;3.97;;
64186;SDS011;50491;39.484;-8.540;2022-12-24T06:49:01;7.38;;;4.57;;
64186;SDS011;50491;39.484;-8.540;2022-12-24T06:51:02;12.23;;;4.72;;
64186;SDS011;50491;39.484;-8.540;2022-12-24T06:53:03;7.13;;;4.35;;
64186;SDS011;50491;39.484;-8.540;2022-12-24T06:55:04;9.80;;;4.93;;
64186;SDS011;50491;39.484;-8.540;2022-12-24T06:57:04;9.75;;;4.85;;
64186;SDS011;50491;39.484;-8.540;2022-12-24T06:59:06;6.38;;;4.38;;
64186;SDS011;50491;39.484;-8.540;2022-12-24T07:01:08;9.90;;;4.22;;
64186;SDS011;50491;39.484;-8.540;2022-12-24T07:03:10;11.55;;;4.88;;
64186;SDS011;50491;39.484;-8.540;2022-12-24T07:05:11;17.30;;;4.50;;
64186;SDS011;50491;39.484;-8.540;2022-12-24T07:07:12;9.25;;;4.93;;
64186;SDS011;50491;39.484;-8.540;2022-12-24T07:09:13;5.45;;;4.47;;
64186;SDS011;50491;39.484;-8.540;2022-12-24T07:11:13;10.43;;;4.07;;
64186;SDS011;50491;39.484;-8.540;2022-12-24T07:13:14;9.23;;;4.40;;
64186;SDS011;50491;39.484;-8.540;2022-12-24T07:15:33;8.40;;;4.30;;
64186;SDS011;50491;39.484;-8.540;2022-12-24T07:17:34;8.98;;;4.05;;
64186;SDS011;50491;39.484;-8.540;2022-12-24T07:19:35;15.07;;;4.90;;
64186;SDS011;50491;39.484;-8.540;2022-12-24T07:21:35;10.18;;;4.90;;
64186;SDS011;50491;39.484;-8.540;2022-12-24T07:23:36;7.00;;;4.20;;
64186;SDS011;50491;39.484;-8.540;2022-12-24T07:25:36;13.70;;;5.15;;
64186;SDS011;50491;39.484;-8.540;2022-12-24T07:28:00;9.13;;;3.88;;
64186;SDS011;50491;39.484;-8.540;2022-12-24T07:30:01;10.30;;;5.07;;
64186;SDS011;50491;39.484;-8.540;2022-12-24T07:32:20;9.40;;;4.90;;
64186;SDS011;50491;39.484;-8.540;2022-12-24T07:34:21;8.57;;;4.32;;
64186;SDS011;50491;39.484;-8.540;2022-12-24T07:36:21;10.77;;;4.78;;
64186;SDS011;50491;39.484;-8.540;2022-12-24T07:38:22;11.63;;;4.22;;
64186;SDS011;50491;39.484;-8.540;2022-12-24T07:40:22;5.88;;;3.72;;
64186;SDS011;50491;39.484;-8.540;2022-12-24T07:42:23;8.05;;;3.88;;
64186;SDS011;50491;39.484;-8.540;2022-12-24T07:44:24;11.75;;;5.00;;
64186;SDS011;50491;39.484;-8.540;2022-12-24T07:46:24;8.50;;;4.07;;
64186;SDS011;50491;39.484;-8.540;2022-12-24T07:48:26;8.48;;;4.00;;
64186;SDS011;50491;39.484;-8.540;2022-12-24T07:50:47;9.25;;;4.65;;
64186;SDS011;50491;39.484;-8.540;2022-12-24T07:52:48;7.68;;;4.28;;
64186;SDS011;50491;39.484;-8.540;2022-12-24T07:54:49;8.57;;;4.55;;
64186;SDS011;50491;39.484;-8.540;2022-12-24T07:56:50;13.00;;;4.45;;
64186;SDS011;50491;39.484;-8.540;2022-12-24T07:58:50;8.65;;;4.07;;
64186;SDS011;50491;39.484;-8.540;2022-12-24T08:00:57;6.25;;;4.15;;
64186;SDS011;50491;39.484;-8.540;2022-12-24T08:02:58;9.40;;;4.13;;
64186;SDS011;50491;39.484;-8.540;2022-12-24T08:04:59;12.63;;;5.30;;
64186;SDS011;50491;39.484;-8.540;2022-12-24T08:07:00;11.80;;;5.22;;
64186;SDS011;50491;39.484;-8.540;2022-12-24T08:09:00;8.63;;;4.50;;
64186;SDS011;50491;39.484;-8.540;2022-12-24T08:11:02;8.63;;;4.50;;
64186;SDS011;50491;39.484;-8.540;2022-12-24T08:13:22;10.68;;;4.70;;
64186;SDS011;50491;39.484;-8.540;2022-12-24T08:15:41;11.85;;;6.32;;
64186;SDS011;50491;39.484;-8.540;2022-12-24T08:17:42;14.77;;;5.07;;
64186;SDS011;50491;39.484;-8.540;2022-12-24T08:19:44;8.43;;;4.93;;
64186;SDS011;50491;39.484;-8.540;2022-12-24T08:21:44;8.02;;;4.85;;
64186;SDS011;50491;39.484;-8.540;2022-12-24T08:24:03;8.93;;;4.65;;
64186;SDS011;50491;39.484;-8.540;2022-12-24T08:26:08;8.77;;;4.50;;
64186;SDS011;50491;39.484;-8.540;2022-12-24T08:28:09;11.85;;;4.90;;
64186;SDS011;50491;39.484;-8.540;2022-12-24T08:30:11;8.45;;;4.32;;
64186;SDS011;50491;39.484;-8.540;2022-12-24T08:32:30;9.70;;;3.80;;
64186;SDS011;50491;39.484;-8.540;2022-12-24T08:34:31;7.10;;;4.47;;
64186;SDS011;50491;39.484;-8.540;2022-12-24T08:36:32;6.18;;;4.05;;
64186;SDS011;50491;39.484;-8.540;2022-12-24T08:38:33;9.43;;;4.60;;
64186;SDS011;50491;39.484;-8.540;2022-12-24T08:40:33;6.97;;;4.63;;
64186;SDS011;50491;39.484;-8.540;2022-12-24T08:42:34;9.38;;;4.45;;
64186;SDS011;50491;39.484;-8.540;2022-12-24T08:44:53;6.97;;;4.00;;
64186;SDS011;50491;39.484;-8.540;2022-12-24T08:46:54;13.88;;;4.65;;
64186;SDS011;50491;39.484;-8.540;2022-12-24T08:48:54;9.90;;;4.30;;
64186;SDS011;50491;39.484;-8.540;2022-12-24T08:51:20;7.65;;;4.65;;
64186;SDS011;50491;39.484;-8.540;2022-12-24T08:53:27;7.75;;;4.28;;
64186;SDS011;50491;39.484;-8.540;2022-12-24T08:55:27;9.38;;;4.00;;
64186;SDS011;50491;39.484;-8.540;2022-12-24T08:57:28;7.60;;;4.13;;
64186;SDS011;50491;39.484;-8.540;2022-12-24T08:59:29;6.78;;;3.70;;
64186;SDS011;50491;39.484;-8.540;2022-12-24T09:01:47;10.13;;;4.32;;
64186;SDS011;50491;39.484;-8.540;2022-12-24T09:03:48;7.43;;;3.97;;
64186;SDS011;50491;39.484;-8.540;2022-12-24T09:05:49;6.28;;;3.70;;
64186;SDS011;50491;39.484;-8.540;2022-12-24T09:08:08;8.20;;;3.65;;
64186;SDS011;50491;39.484;-8.540;2022-12-24T09:10:09;6.35;;;3.38;;
64186;SDS011;50491;39.484;-8.540;2022-12-24T09:12:10;5.53;;;3.03;;
64186;SDS011;50491;39.484;-8.540;2022-12-24T09:14:11;6.88;;;3.53;;
64186;SDS011;50491;39.484;-8.540;2022-12-24T09:16:11;7.30;;;3.50;;
64186;SDS011;50491;39.484;-8.540;2022-12-24T09:18:12;7.82;;;3.22;;
64186;SDS011;50491;39.484;-8.540;2022-12-24T09:20:31;6.82;;;3.65;;
64186;SDS011;50491;39.484;-8.540;2022-12-24T09:22:35;8.45;;;3.00;;
64186;SDS011;50491;39.484;-8.540;2022-12-24T09:24:37;6.70;;;3.30;;
64186;SDS011;50491;39.484;-8.540;2022-12-24T09:26:38;5.30;;;2.80;;
64186;SDS011;50491;39.484;-8.540;2022-12-24T09:29:03;4.55;;;3.20;;
64186;SDS011;50491;39.484;-8.540;2022-12-24T09:31:04;3.38;;;2.58;;
64186;SDS011;50491;39.484;-8.540;2022-12-24T09:33:05;7.15;;;2.88;;
64186;SDS011;50491;39.484;-8.540;2022-12-24T09:35:06;7.50;;;3.25;;
64186;SDS011;50491;39.484;-8.540;2022-12-24T09:37:25;5.63;;;2.58;;
64186;SDS011;50491;39.484;-8.540;2022-12-24T09:39:26;4.43;;;2.78;;
64186;SDS011;50491;39.484;-8.540;2022-12-24T09:41:41;6.93;;;2.85;;
64186;SDS011;50491;39.484;-8.540;2022-12-24T09:44:23;6.70;;;3.10;;
64186;SDS011;50491;39.484;-8.540;2022-12-24T09:46:40;4.70;;;2.90;;
64186;SDS011;50491;39.484;-8.540;2022-12-24T09:48:44;7.35;;;3.42;;
64186;SDS011;50491;39.484;-8.540;2022-12-24T09:51:07;5.95;;;2.63;;
64186;SDS011;50491;39.484;-8.540;2022-12-24T09:53:26;6.28;;;3.22;;
64186;SDS011;50491;39.484;-8.540;2022-12-24T09:55:55;5.75;;;2.90;;
64186;SDS011;50491;39.484;-8.540;2022-12-24T09:57:57;5.90;;;2.80;;
64186;SDS011;50491;39.484;-8.540;2022-12-24T10:02:55;6.47;;;2.88;;
64186;SDS011;50491;39.484;-8.540;2022-12-24T10:05:16;4.18;;;2.55;;
64186;SDS011;50491;39.484;-8.540;2022-12-24T10:07:29;4.30;;;2.70;;
64186;SDS011;50491;39.484;-8.540;2022-12-24T10:12:38;4.47;;;2.38;;
64186;SDS011;50491;39.484;-8.540;2022-12-24T10:19:40;11.40;;;2.38;;
64186;SDS011;50491;39.484;-8.540;2022-12-24T10:27:00;6.38;;;2.75;;
64186;SDS011;50491;39.484;-8.540;2022-12-24T10:29:36;3.47;;;2.17;;
64186;SDS011;50491;39.484;-8.540;2022-12-24T10:34:17;6.45;;;1.95;;
64186;SDS011;50491;39.484;-8.540;2022-12-24T10:36:24;2.50;;;1.70;;
64186;SDS011;50491;39.484;-8.540;2022-12-24T10:38:27;4.82;;;1.98;;
64186;SDS011;50491;39.484;-8.540;2022-12-24T10:40:33;5.25;;;2.00;;
64186;SDS011;50491;39.484;-8.540;2022-12-24T10:42:46;6.00;;;2.85;;
64186;SDS011;50491;39.484;-8.540;2022-12-24T10:44:49;5.05;;;1.90;;
64186;SDS011;50491;39.484;-8.540;2022-12-24T10:48:56;3.53;;;1.90;;
64186;SDS011;50491;39.484;-8.540;2022-12-24T10:51:04;2.70;;;2.20;;
64186;SDS011;50491;39.484;-8.540;2022-12-24T10:56:02;5.38;;;1.90;;
64186;SDS011;50491;39.484;-8.540;2022-12-24T11:00:48;5.65;;;1.80;;
64186;SDS011;50491;39.484;-8.540;2022-12-24T11:05:33;2.80;;;1.48;;
64186;SDS011;50491;39.484;-8.540;2022-12-24T11:07:35;6.72;;;1.83;;
64186;SDS011;50491;39.484;-8.540;2022-12-24T11:12:46;3.65;;;1.70;;
64186;SDS011;50491;39.484;-8.540;2022-12-24T11:15:16;6.50;;;1.77;;
64186;SDS011;50491;39.484;-8.540;2022-12-24T11:17:28;2.33;;;1.52;;
64186;SDS011;50491;39.484;-8.540;2022-12-24T11:19:32;4.30;;;1.23;;
64186;SDS011;50491;39.484;-8.540;2022-12-24T11:25:21;5.13;;;1.80;;
64186;SDS011;50491;39.484;-8.540;2022-12-24T11:29:34;4.22;;;1.70;;
64186;SDS011;50491;39.484;-8.540;2022-12-24T11:32:13;3.90;;;1.92;;
64186;SDS011;50491;39.484;-8.540;2022-12-24T11:34:35;5.32;;;2.42;;
64186;SDS011;50491;39.484;-8.540;2022-12-24T11:36:36;6.35;;;2.78;;
64186;SDS011;50491;39.484;-8.540;2022-12-24T11:38:37;4.90;;;2.30;;
64186;SDS011;50491;39.484;-8.540;2022-12-24T11:41:17;3.17;;;1.70;;
64186;SDS011;50491;39.484;-8.540;2022-12-24T11:43:37;5.13;;;2.35;;
64186;SDS011;50491;39.484;-8.540;2022-12-24T11:51:19;4.35;;;1.60;;
64186;SDS011;50491;39.484;-8.540;2022-12-24T11:53:22;7.10;;;2.53;;
64186;SDS011;50491;39.484;-8.540;2022-12-24T11:57:48;6.43;;;1.77;;
64186;SDS011;50491;39.484;-8.540;2022-12-24T11:59:53;4.10;;;1.88;;
64186;SDS011;50491;39.484;-8.540;2022-12-24T12:04:32;4.38;;;2.45;;
64186;SDS011;50491;39.484;-8.540;2022-12-24T12:06:36;5.32;;;1.75;;
64186;SDS011;50491;39.484;-8.540;2022-12-24T12:08:39;4.60;;;2.00;;
64186;SDS011;50491;39.484;-8.540;2022-12-24T12:10:43;7.18;;;2.20;;
64186;SDS011;50491;39.484;-8.540;2022-12-24T12:12:46;6.13;;;2.67;;
64186;SDS011;50491;39.484;-8.540;2022-12-24T12:14:56;5.10;;;2.72;;
64186;SDS011;50491;39.484;-8.540;2022-12-24T12:17:23;2.55;;;1.92;;
64186;SDS011;50491;39.484;-8.540;2022-12-24T12:19:47;3.60;;;2.28;;
64186;SDS011;50491;39.484;-8.540;2022-12-24T12:21:49;3.30;;;2.20;;
64186;SDS011;50491;39.484;-8.540;2022-12-24T12:23:55;4.43;;;2.45;;
64186;SDS011;50491;39.484;-8.540;2022-12-24T12:26:09;7.20;;;2.85;;
64186;SDS011;50491;39.484;-8.540;2022-12-24T12:30:28;8.52;;;2.83;;
64186;SDS011;50491;39.484;-8.540;2022-12-24T12:35:17;7.97;;;3.50;;
64186;SDS011;50491;39.484;-8.540;2022-12-24T12:37:42;3.50;;;1.95;;
64186;SDS011;50491;39.484;-8.540;2022-12-24T12:40:03;4.93;;;2.22;;
64186;SDS011;50491;39.484;-8.540;2022-12-24T12:42:33;4.78;;;2.22;;
64186;SDS011;50491;39.484;-8.540;2022-12-24T12:52:01;2.95;;;1.85;;
64186;SDS011;50491;39.484;-8.540;2022-12-24T12:56:34;2.72;;;1.88;;
64186;SDS011;50491;39.484;-8.540;2022-12-24T13:01:13;6.10;;;2.10;;
64186;SDS011;50491;39.484;-8.540;2022-12-24T13:21:20;3.25;;;1.00;;
64186;SDS011;50491;39.484;-8.540;2022-12-24T13:23:22;5.57;;;0.82;;
64186;SDS011;50491;39.484;-8.540;2022-12-24T13:28:40;6.40;;;1.45;;
64186;SDS011;50491;39.484;-8.540;2022-12-24T13:33:00;3.58;;;1.85;;
64186;SDS011;50491;39.484;-8.540;2022-12-24T13:37:39;3.72;;;1.60;;
64186;SDS011;50491;39.484;-8.540;2022-12-24T13:42:05;2.92;;;1.70;;
64186;SDS011;50491;39.484;-8.540;2022-12-24T13:49:09;4.32;;;1.67;;
64186;SDS011;50491;39.484;-8.540;2022-12-24T13:53:50;6.60;;;1.80;;
64186;SDS011;50491;39.484;-8.540;2022-12-24T13:58:26;3.13;;;1.65;;
64186;SDS011;50491;39.484;-8.540;2022-12-24T14:00:29;2.45;;;1.50;;
64186;SDS011;50491;39.484;-8.540;2022-12-24T14:02:33;3.35;;;1.40;;
64186;SDS011;50491;39.484;-8.540;2022-12-24T14:06:40;5.40;;;2.33;;
64186;SDS011;50491;39.484;-8.540;2022-12-24T14:09:07;5.53;;;2.05;;
64186;SDS011;50491;39.484;-8.540;2022-12-24T14:11:11;2.58;;;1.67;;
64186;SDS011;50491;39.484;-8.540;2022-12-24T14:17:50;2.45;;;1.63;;
64186;SDS011;50491;39.484;-8.540;2022-12-24T14:19:52;1.90;;;1.40;;
64186;SDS011;50491;39.484;-8.540;2022-12-24T14:25:08;2.38;;;1.60;;
64186;SDS011;50491;39.484;-8.540;2022-12-24T14:27:42;6.55;;;1.95;;
64186;SDS011;50491;39.484;-8.540;2022-12-24T14:32:13;4.97;;;2.13;;
64186;SDS011;50491;39.484;-8.540;2022-12-24T14:34:15;1.95;;;1.65;;
64186;SDS011;50491;39.484;-8.540;2022-12-24T14:36:34;2.95;;;1.80;;
64186;SDS011;50491;39.484;-8.540;2022-12-24T14:38:54;3.90;;;1.70;;
64186;SDS011;50491;39.484;-8.540;2022-12-24T14:43:29;2.65;;;1.60;;
64186;SDS011;50491;39.484;-8.540;2022-12-24T14:46:26;3.60;;;1.90;;
64186;SDS011;50491;39.484;-8.540;2022-12-24T14:50:50;5.20;;;1.92;;
64186;SDS011;50491;39.484;-8.540;2022-12-24T14:55:29;4.63;;;1.85;;
64186;SDS011;50491;39.484;-8.540;2022-12-24T15:00:18;3.45;;;1.85;;
64186;SDS011;50491;39.484;-8.540;2022-12-24T15:02:57;6.05;;;2.40;;
64186;SDS011;50491;39.484;-8.540;2022-12-24T15:05:23;4.50;;;1.77;;
64186;SDS011;50491;39.484;-8.540;2022-12-24T15:07:27;3.17;;;2.25;;
64186;SDS011;50491;39.484;-8.540;2022-12-24T15:09:49;9.27;;;2.33;;
64186;SDS011;50491;39.484;-8.540;2022-12-24T15:11:50;4.32;;;2.72;;
64186;SDS011;50491;39.484;-8.540;2022-12-24T15:13:54;4.18;;;2.30;;
64186;SDS011;50491;39.484;-8.540;2022-12-24T15:15:57;4.70;;;1.83;;
64186;SDS011;50491;39.484;-8.540;2022-12-24T15:17:57;7.05;;;3.33;;
64186;SDS011;50491;39.484;-8.540;2022-12-24T15:19:58;4.28;;;2.15;;
64186;SDS011;50491;39.484;-8.540;2022-12-24T15:22:01;5.13;;;1.98;;
64186;SDS011;50491;39.484;-8.540;2022-12-24T15:24:33;5.88;;;2.45;;
64186;SDS011;50491;39.484;-8.540;2022-12-24T15:28:36;6.18;;;2.40;;
64186;SDS011;50491;39.484;-8.540;2022-12-24T15:30:38;3.83;;;2.13;;
64186;SDS011;50491;39.484;-8.540;2022-12-24T15:32:38;4.90;;;1.92;;
64186;SDS011;50491;39.484;-8.540;2022-12-24T15:42:50;3.85;;;2.40;;